createdAt,value
2022-09-16T00:02:59.306Z,2.13
2022-09-16T00:06:03.639Z,2.53
2022-09-16T00:09:08.179Z,2.90
2022-09-16T00:12:12.503Z,2.80
2022-09-16T00:15:17.311Z,2.42
2022-09-16T00:21:27.508Z,1.75
2022-09-16T00:24:32.077Z,1.65
2022-09-16T00:27:36.268Z,2.65
2022-09-16T00:30:40.610Z,3.33
2022-09-16T00:33:45.294Z,3.25
2022-09-16T00:36:49.585Z,2.38
2022-09-16T00:39:54.143Z,2.78
2022-09-16T00:43:00.184Z,2.75
2022-09-16T00:46:05.289Z,2.25
2022-09-16T00:49:20.575Z,2.60
2022-09-16T00:52:27.039Z,2.28
2022-09-16T00:55:36.658Z,3.63
2022-09-16T00:58:52.164Z,2.78
2022-09-16T01:02:00.361Z,2.90
2022-09-16T01:05:08.319Z,2.55
2022-09-16T01:08:12.843Z,3.08
2022-09-16T01:11:17.401Z,2.05
2022-09-16T01:14:44.309Z,2.15
2022-09-16T01:17:54.925Z,3.25
2022-09-16T01:21:11.140Z,3.53
2022-09-16T01:24:49.246Z,2.53
2022-09-16T01:28:31.191Z,2.13
2022-09-16T01:32:05.366Z,1.73
2022-09-16T01:35:24.920Z,2.45
2022-09-16T01:38:37.666Z,2.65
2022-09-16T01:42:00.937Z,2.05
2022-09-16T01:45:30.864Z,2.30
2022-09-16T01:49:01.437Z,2.15
2022-09-16T01:52:32.244Z,1.50
2022-09-16T01:55:44.703Z,1.98
2022-09-16T01:59:01.955Z,2.47
2022-09-16T02:02:38.833Z,1.88
2022-09-16T02:05:54.166Z,3.88
2022-09-16T02:09:07.208Z,2.08
2022-09-16T02:12:16.777Z,2.47
2022-09-16T02:15:24.651Z,2.75
2022-09-16T02:18:33.098Z,2.58
2022-09-16T02:21:43.492Z,2.40
2022-09-16T02:24:52.057Z,2.85
2022-09-16T02:28:00.290Z,2.38
2022-09-16T02:31:07.739Z,2.72
2022-09-16T02:34:16.577Z,2.13
2022-09-16T02:37:33.801Z,2.35
2022-09-16T02:40:46.238Z,2.40
2022-09-16T02:43:50.918Z,2.25
2022-09-16T02:47:09.212Z,1.95
2022-09-16T02:50:21.317Z,2.75
2022-09-16T02:53:40.608Z,3.38
2022-09-16T02:56:44.696Z,3.05
2022-09-16T02:59:49.709Z,2.78
2022-09-16T03:02:54.473Z,2.50
2022-09-16T03:09:24.127Z,3.30
2022-09-16T03:13:02.472Z,1.90
2022-09-16T03:16:29.255Z,2.97
2022-09-16T03:20:05.646Z,4.88
2022-09-16T03:23:49.273Z,2.63
2022-09-16T03:27:09.342Z,3.03
2022-09-16T03:30:13.783Z,2.83
2022-09-16T03:33:49.619Z,3.10
2022-09-16T03:36:59.170Z,3.60
2022-09-16T03:40:13.190Z,4.07
2022-09-16T03:43:17.737Z,2.30
2022-09-16T03:46:22.227Z,4.68
2022-09-16T03:49:26.766Z,1.27
2022-09-16T03:52:31.228Z,1.90
2022-09-16T03:55:35.866Z,2.92
2022-09-16T03:58:39.873Z,2.40
2022-09-16T04:01:45.393Z,2.25
2022-09-16T04:04:49.665Z,1.73
2022-09-16T04:07:53.932Z,3.92
2022-09-16T04:11:00.740Z,2.50
2022-09-16T04:14:05.617Z,3.65
2022-09-16T04:17:09.861Z,3.47
2022-09-16T04:23:18.873Z,3.10
2022-09-16T04:26:23.121Z,2.63
2022-09-16T04:29:27.828Z,2.67
2022-09-16T04:32:32.208Z,7.05
2022-09-16T04:35:36.655Z,4.47
2022-09-16T04:38:43.010Z,3.03
2022-09-16T04:41:47.785Z,2.60
2022-09-16T04:44:52.005Z,3.15
2022-09-16T04:47:57.793Z,3.05
2022-09-16T04:51:04.838Z,2.20
2022-09-16T04:54:09.586Z,2.53
2022-09-16T04:57:14.389Z,2.20
2022-09-16T05:00:18.749Z,2.63
2022-09-16T05:03:23.270Z,1.92
2022-09-16T05:06:33.520Z,1.42
2022-09-16T05:09:37.795Z,2.00
2022-09-16T05:12:43.922Z,1.88
2022-09-16T05:15:51.313Z,1.92
2022-09-16T05:18:57.580Z,2.13
2022-09-16T05:22:06.972Z,2.05
2022-09-16T05:25:11.436Z,1.83
2022-09-16T05:28:15.600Z,1.63
2022-09-16T05:31:28.404Z,1.92
2022-09-16T05:34:32.761Z,1.80
2022-09-16T05:37:37.439Z,2.95
2022-09-16T05:40:42.062Z,2.20
2022-09-16T05:43:46.505Z,2.28
2022-09-16T05:46:51.069Z,3.08
2022-09-16T05:49:55.121Z,1.75
2022-09-16T05:52:59.608Z,1.50
2022-09-16T05:56:06.354Z,2.67
2022-09-16T05:59:12.829Z,1.90
2022-09-16T06:02:17.338Z,2.03
2022-09-16T06:05:22.043Z,1.65
2022-09-16T06:08:26.683Z,1.35
2022-09-16T06:11:31.409Z,1.48
2022-09-16T06:14:35.800Z,2.03
2022-09-16T06:17:40.324Z,3.30
2022-09-16T06:20:45.877Z,2.70
2022-09-16T06:23:50.738Z,4.20
2022-09-16T06:26:55.124Z,1.85
2022-09-16T06:29:59.499Z,2.15
2022-09-16T06:33:04.594Z,2.83
2022-09-16T06:39:17.150Z,2.42
2022-09-16T06:42:21.464Z,1.67
2022-09-16T06:45:26.472Z,1.83
2022-09-16T06:48:33.445Z,1.30
2022-09-16T06:51:37.829Z,2.03
2022-09-16T06:54:42.274Z,1.83
2022-09-16T06:57:46.835Z,1.83
2022-09-16T07:00:51.436Z,3.08
2022-09-16T07:03:57.556Z,4.30
2022-09-16T07:07:10.272Z,2.38
2022-09-16T07:10:15.374Z,3.58
2022-09-16T07:13:19.750Z,1.75
2022-09-16T07:16:25.936Z,2.92
2022-09-16T07:19:30.693Z,2.85
2022-09-16T07:22:35.078Z,3.42
2022-09-16T07:25:39.607Z,3.30
2022-09-16T07:28:48.484Z,1.92
2022-09-16T07:31:52.636Z,1.88
2022-09-16T07:34:58.002Z,2.15
2022-09-16T07:38:02.214Z,1.00
2022-09-16T07:41:08.499Z,2.00
2022-09-16T07:44:15.517Z,1.50
2022-09-16T07:47:22.218Z,1.25
2022-09-16T07:50:26.811Z,1.38
2022-09-16T07:53:32.366Z,0.70
2022-09-16T07:56:38.928Z,0.65
2022-09-16T07:59:43.568Z,1.27
2022-09-16T08:02:47.960Z,0.85
2022-09-16T08:05:52.577Z,0.65
2022-09-16T08:09:05.803Z,0.90
2022-09-16T08:12:19.858Z,0.85
2022-09-16T08:15:24.752Z,1.83
2022-09-16T08:18:30.083Z,1.67
2022-09-16T08:21:34.462Z,0.70
2022-09-16T08:24:38.636Z,0.40
2022-09-16T08:27:43.160Z,0.85
2022-09-16T08:30:51.287Z,1.15
2022-09-16T08:33:58.854Z,1.45
2022-09-16T08:37:03.030Z,1.42
2022-09-16T08:40:08.178Z,2.28
2022-09-16T08:43:36.863Z,1.00
2022-09-16T08:46:47.324Z,1.60
2022-09-16T08:49:53.153Z,1.02
2022-09-16T08:53:02.711Z,0.65
2022-09-16T08:56:12.534Z,1.30
2022-09-16T08:59:24.048Z,0.65
2022-09-16T09:02:34.937Z,0.90
2022-09-16T09:05:51.222Z,1.10
2022-09-16T09:09:21.450Z,1.55
2022-09-16T09:12:38.010Z,1.30
2022-09-16T09:16:01.896Z,1.25
2022-09-16T09:19:21.152Z,1.13
2022-09-16T09:22:48.721Z,1.38
2022-09-16T09:25:58.052Z,1.58
2022-09-16T09:29:08.779Z,1.00
2022-09-16T09:32:49.108Z,0.85
2022-09-16T09:36:12.359Z,1.80
2022-09-16T09:39:27.188Z,1.48
2022-09-16T09:42:44.413Z,1.10
2022-09-16T09:46:05.447Z,0.65
2022-09-16T09:49:50.515Z,0.82
2022-09-16T09:53:02.932Z,1.23
2022-09-16T09:56:21.037Z,1.30
2022-09-16T09:59:44.333Z,1.20
2022-09-16T10:02:50.183Z,1.00
2022-09-16T10:05:55.020Z,0.73
2022-09-16T10:08:59.920Z,1.17
2022-09-16T10:12:05.465Z,1.75
2022-09-16T10:15:21.307Z,1.48
2022-09-16T10:18:31.757Z,1.25
2022-09-16T10:21:47.591Z,1.30
2022-09-16T10:24:58.148Z,1.23
2022-09-16T10:28:06.030Z,1.33
2022-09-16T10:31:11.680Z,1.77
2022-09-16T10:34:27.943Z,1.45
2022-09-16T10:37:32.322Z,0.80
2022-09-16T10:40:37.345Z,0.98
2022-09-16T10:43:49.505Z,1.40
2022-09-16T10:47:06.731Z,0.80
2022-09-16T10:50:18.278Z,1.15
2022-09-16T10:53:41.098Z,1.40
2022-09-16T10:56:50.062Z,0.68
2022-09-16T11:00:16.983Z,0.80
2022-09-16T11:03:39.724Z,0.88
2022-09-16T11:07:14.377Z,0.60
2022-09-16T11:10:55.322Z,0.47
2022-09-16T11:14:29.644Z,0.88
2022-09-16T11:17:43.749Z,1.00
2022-09-16T11:20:54.252Z,0.83
2022-09-16T11:24:38.883Z,0.93
2022-09-16T11:28:01.937Z,0.95
2022-09-16T11:31:27.341Z,1.02
2022-09-16T11:34:59.067Z,0.90
2022-09-16T11:38:18.813Z,0.98
2022-09-16T11:41:43.583Z,0.80
2022-09-16T11:45:27.172Z,0.68
2022-09-16T11:49:13.393Z,1.02
2022-09-16T11:52:47.444Z,0.85
2022-09-16T11:56:14.260Z,0.68
2022-09-16T11:59:39.733Z,0.47
2022-09-16T12:02:50.053Z,0.50
2022-09-16T12:06:04.613Z,1.10
2022-09-16T12:09:17.680Z,1.20
2022-09-16T12:12:35.252Z,0.98
2022-09-16T12:15:51.893Z,1.00
2022-09-16T12:19:01.648Z,0.77
2022-09-16T12:22:08.596Z,1.10
2022-09-16T12:25:19.107Z,1.52
2022-09-16T12:28:31.727Z,0.68
2022-09-16T12:31:45.091Z,0.75
2022-09-16T12:35:17.225Z,0.70
2022-09-16T12:38:22.809Z,0.77
2022-09-16T12:41:32.996Z,2.30
2022-09-16T12:44:59.618Z,1.67
2022-09-16T12:48:41.847Z,1.02
2022-09-16T12:52:20.245Z,0.70
2022-09-16T12:55:52.980Z,1.08
2022-09-16T12:59:16.336Z,1.60
2022-09-16T13:02:29.603Z,1.95
2022-09-16T13:05:36.984Z,1.23
2022-09-16T13:08:41.348Z,0.90
2022-09-16T13:15:33.570Z,1.90
2022-09-16T13:18:50.714Z,1.58
2022-09-16T13:22:19.409Z,2.95
2022-09-16T13:25:47.736Z,1.17
2022-09-16T13:28:52.552Z,1.60
2022-09-16T13:35:37.151Z,1.38
2022-09-16T13:38:53.356Z,1.17
2022-09-16T13:41:57.682Z,1.38
2022-09-16T13:45:02.110Z,0.98
2022-09-16T13:48:23.466Z,0.80
2022-09-16T13:51:27.792Z,0.93
2022-09-16T13:54:47.947Z,0.90
2022-09-16T13:58:03.943Z,0.55
2022-09-16T14:01:27.957Z,0.90
2022-09-16T14:04:49.859Z,1.08
2022-09-16T14:07:58.998Z,0.75
2022-09-16T14:11:13.774Z,0.60
2022-09-16T14:21:03.155Z,0.57
2022-09-16T14:24:16.767Z,0.65
2022-09-16T14:27:27.250Z,0.60
2022-09-16T14:30:32.046Z,0.55
2022-09-16T14:33:40.618Z,0.43
2022-09-16T14:36:46.910Z,1.55
2022-09-16T14:39:55.315Z,0.80
2022-09-16T14:43:05.628Z,0.50
2022-09-16T14:46:09.690Z,1.27
2022-09-16T14:49:15.271Z,0.95
2022-09-16T14:52:26.323Z,2.03
2022-09-16T14:55:33.550Z,1.33
2022-09-16T14:58:38.149Z,0.43
2022-09-16T15:01:43.064Z,0.88
2022-09-16T15:04:53.754Z,0.40
2022-09-16T15:08:15.928Z,0.32
2022-09-16T15:11:46.482Z,0.40
2022-09-16T15:14:50.578Z,0.40
2022-09-16T15:17:58.508Z,0.10
2022-09-16T15:21:11.688Z,0.10
2022-09-16T15:24:21.005Z,0.40
2022-09-16T15:27:27.913Z,0.25
2022-09-16T15:30:32.279Z,0.10
2022-09-16T15:33:41.751Z,0.00
2022-09-16T15:36:54.697Z,0.20
2022-09-16T15:40:21.157Z,0.68
2022-09-16T15:43:29.419Z,0.60
2022-09-16T15:46:34.776Z,0.55
2022-09-16T15:49:40.288Z,0.30
2022-09-16T15:52:57.757Z,1.02
2022-09-16T15:56:24.501Z,0.70
2022-09-16T15:59:37.143Z,0.60
2022-09-16T16:02:41.508Z,1.00
2022-09-16T16:05:51.762Z,0.77
2022-09-16T16:08:58.026Z,0.30
2022-09-16T16:12:08.470Z,0.40
2022-09-16T16:15:15.553Z,1.17
2022-09-16T16:18:19.978Z,0.70
2022-09-16T16:21:24.320Z,0.63
2022-09-16T16:24:30.582Z,1.20
2022-09-16T16:27:34.878Z,0.95
2022-09-16T16:30:40.439Z,0.45
2022-09-16T16:33:47.543Z,1.33
2022-09-16T16:36:51.994Z,0.98
2022-09-16T16:39:57.294Z,1.02
2022-09-16T16:43:01.832Z,1.23
2022-09-16T16:46:06.388Z,1.50
2022-09-16T16:49:10.888Z,1.52
2022-09-16T16:52:15.463Z,0.70
2022-09-16T16:55:19.858Z,0.52
2022-09-16T16:58:24.277Z,1.83
2022-09-16T17:01:31.107Z,0.35
2022-09-16T17:04:35.662Z,0.52
2022-09-16T17:07:40.447Z,0.65
2022-09-16T17:13:52.789Z,1.23
2022-09-16T17:16:57.738Z,1.88
2022-09-16T17:20:01.789Z,1.30
2022-09-16T17:23:06.214Z,1.67
2022-09-16T17:26:12.199Z,0.90
2022-09-16T17:29:17.371Z,1.10
2022-09-16T17:32:21.566Z,0.43
2022-09-16T17:35:25.996Z,2.40
2022-09-16T17:38:30.582Z,2.72
2022-09-16T17:41:35.545Z,1.00
2022-09-16T17:44:40.014Z,1.15
2022-09-16T17:47:44.524Z,0.40
2022-09-16T17:50:52.792Z,0.45
2022-09-16T17:53:57.762Z,0.60
2022-09-16T17:57:02.256Z,0.20
2022-09-16T18:00:07.195Z,1.52
2022-09-16T18:03:16.426Z,0.30
2022-09-16T18:06:23.018Z,0.43
2022-09-16T18:09:27.201Z,0.10
2022-09-16T18:12:31.783Z,0.22
2022-09-16T18:15:36.142Z,0.30
2022-09-16T18:18:41.875Z,0.93
2022-09-16T18:21:46.435Z,0.45
2022-09-16T18:27:56.959Z,1.02
2022-09-16T18:31:09.672Z,0.93
2022-09-16T18:34:16.234Z,0.50
2022-09-16T18:37:20.462Z,0.70
2022-09-16T18:40:24.634Z,0.50
2022-09-16T18:43:29.240Z,0.47
2022-09-16T18:46:36.177Z,0.55
2022-09-16T18:49:40.636Z,0.50
2022-09-16T18:52:47.268Z,0.73
2022-09-16T18:55:53.866Z,0.38
2022-09-16T18:59:22.688Z,0.57
2022-09-16T19:02:27.761Z,0.20
2022-09-16T19:05:32.074Z,0.45
2022-09-16T19:08:36.275Z,0.22
2022-09-16T19:11:41.269Z,0.30
2022-09-16T19:14:45.904Z,0.55
2022-09-16T19:17:50.386Z,0.68
2022-09-16T19:20:56.236Z,0.28
2022-09-16T19:24:03.496Z,0.60
2022-09-16T19:27:07.722Z,0.38
2022-09-16T19:30:12.117Z,0.28
2022-09-16T19:33:16.434Z,0.40
2022-09-16T19:36:24.590Z,0.30
2022-09-16T19:39:28.944Z,0.20
2022-09-16T19:42:33.385Z,0.10
2022-09-16T19:45:37.748Z,0.20
2022-09-16T19:48:47.969Z,0.63
2022-09-16T19:51:53.282Z,0.28
2022-09-16T19:54:57.169Z,0.57
2022-09-16T19:58:02.670Z,0.30
2022-09-16T20:01:12.891Z,0.38
2022-09-16T20:04:20.420Z,0.50
2022-09-16T20:07:24.915Z,0.45
2022-09-16T20:10:29.959Z,0.38
2022-09-16T20:13:35.474Z,0.98
2022-09-16T20:16:40.681Z,0.57
2022-09-16T20:22:48.992Z,0.20
2022-09-16T20:25:58.226Z,0.88
2022-09-16T20:29:02.785Z,0.25
2022-09-16T20:32:07.402Z,0.20
2022-09-16T20:35:12.487Z,0.40
2022-09-16T20:38:17.037Z,0.28
2022-09-16T20:41:23.697Z,0.30
2022-09-16T20:44:27.753Z,0.63
2022-09-16T20:47:32.059Z,0.50
2022-09-16T20:50:38.835Z,0.47
2022-09-16T20:53:43.947Z,0.20
2022-09-16T20:56:49.158Z,0.10
2022-09-16T20:59:53.691Z,0.20
2022-09-16T21:02:58.232Z,0.50
2022-09-16T21:09:14.273Z,0.10
2022-09-16T21:12:18.369Z,0.30
2022-09-16T21:15:22.683Z,1.67
2022-09-16T21:18:28.049Z,0.57
2022-09-16T21:21:32.370Z,0.32
2022-09-16T21:24:36.951Z,0.50
2022-09-16T21:27:41.260Z,0.40
2022-09-16T21:30:45.738Z,0.10
2022-09-16T21:33:51.891Z,0.45
2022-09-16T21:36:59.066Z,0.22
2022-09-16T21:40:03.807Z,0.38
2022-09-16T21:43:08.458Z,0.50
2022-09-16T21:46:15.107Z,0.40
2022-09-16T21:49:28.840Z,0.35
2022-09-16T21:52:33.299Z,1.38
2022-09-16T21:55:39.746Z,0.40
2022-09-16T21:58:44.167Z,0.40
2022-09-16T22:01:50.060Z,1.02
2022-09-16T22:04:54.667Z,0.30
2022-09-16T22:08:03.302Z,0.60
2022-09-16T22:11:10.762Z,0.60
2022-09-16T22:14:15.608Z,0.20
2022-09-16T22:17:21.484Z,0.40
2022-09-16T22:20:26.016Z,0.30
2022-09-16T22:23:30.566Z,0.20
2022-09-16T22:26:35.848Z,0.32
2022-09-16T22:29:40.087Z,0.20
2022-09-16T22:32:44.422Z,0.10
2022-09-16T22:35:48.639Z,0.65
2022-09-16T22:38:58.433Z,0.65
2022-09-16T22:42:02.662Z,0.57
2022-09-16T22:45:07.622Z,0.10
2022-09-16T22:48:12.034Z,0.28
2022-09-16T22:51:18.771Z,0.38
2022-09-16T22:54:23.004Z,0.50
2022-09-16T22:57:29.066Z,0.47
2022-09-16T23:00:36.218Z,0.50
2022-09-16T23:03:44.520Z,0.47
2022-09-16T23:06:49.262Z,0.40
2022-09-16T23:09:53.450Z,0.63
2022-09-16T23:12:59.585Z,0.13
2022-09-16T23:16:05.821Z,0.75
2022-09-16T23:19:11.784Z,0.10
2022-09-16T23:22:16.008Z,0.35
2022-09-16T23:25:20.294Z,0.10
2022-09-16T23:28:24.570Z,0.38
2022-09-16T23:31:32.084Z,0.70
2022-09-16T23:34:36.831Z,0.10
2022-09-16T23:37:41.798Z,0.10
2022-09-16T23:40:46.130Z,0.10
2022-09-16T23:43:51.052Z,0.47
2022-09-16T23:46:55.192Z,0.13
2022-09-16T23:50:00.176Z,0.05
2022-09-16T23:53:04.642Z,0.28
2022-09-16T23:56:11.040Z,0.20
2022-09-16T23:59:15.494Z,0.22
